sensor_id;sensor_type;location;lat;lon;timestamp;pressure;altitude;pressure_sealevel;temperature;humidity
23339;BME280;11841;49.368;20.962;2023-01-23T00:01:14;96952.97;;;0.45;100.00
23339;BME280;11841;49.368;20.962;2023-01-23T00:03:41;96957.94;;;0.48;100.00
23339;BME280;11841;49.368;20.962;2023-01-23T00:06:09;96959.22;;;0.54;100.00
23339;BME280;11841;49.368;20.962;2023-01-23T00:08:37;96968.22;;;0.61;100.00
23339;BME280;11841;49.368;20.962;2023-01-23T00:11:04;96976.75;;;0.63;100.00
23339;BME280;11841;49.368;20.962;2023-01-23T00:13:32;96961.31;;;0.60;100.00
23339;BME280;11841;49.368;20.962;2023-01-23T00:15:58;96962.09;;;0.51;100.00
23339;BME280;11841;49.368;20.962;2023-01-23T00:18:28;96964.34;;;0.44;100.00
23339;BME280;11841;49.368;20.962;2023-01-23T00:20:54;96967.53;;;0.48;100.00
23339;BME280;11841;49.368;20.962;2023-01-23T00:23:21;96966.81;;;0.57;100.00
23339;BME280;11841;49.368;20.962;2023-01-23T00:25:47;96979.72;;;0.58;100.00
23339;BME280;11841;49.368;20.962;2023-01-23T00:28:14;96980.22;;;0.52;100.00
23339;BME280;11841;49.368;20.962;2023-01-23T00:30:40;96978.81;;;0.48;100.00
23339;BME280;11841;49.368;20.962;2023-01-23T00:33:07;96974.91;;;0.43;100.00
23339;BME280;11841;49.368;20.962;2023-01-23T00:35:34;96978.75;;;0.39;100.00
23339;BME280;11841;49.368;20.962;2023-01-23T00:38:00;96976.59;;;0.44;100.00
23339;BME280;11841;49.368;20.962;2023-01-23T00:40:27;96983.19;;;0.48;100.00
23339;BME280;11841;49.368;20.962;2023-01-23T00:42:53;96993.16;;;0.54;100.00
23339;BME280;11841;49.368;20.962;2023-01-23T00:45:20;96995.25;;;0.60;100.00
23339;BME280;11841;49.368;20.962;2023-01-23T00:47:46;96983.88;;;0.61;100.00
23339;BME280;11841;49.368;20.962;2023-01-23T00:50:13;96982.91;;;0.62;100.00
23339;BME280;11841;49.368;20.962;2023-01-23T00:52:40;96977.44;;;0.65;100.00
23339;BME280;11841;49.368;20.962;2023-01-23T00:55:07;96972.03;;;0.57;100.00
23339;BME280;11841;49.368;20.962;2023-01-23T00:57:33;96966.72;;;0.47;100.00
23339;BME280;11841;49.368;20.962;2023-01-23T01:00:00;96973.28;;;0.42;100.00
23339;BME280;11841;49.368;20.962;2023-01-23T01:02:26;96976.34;;;0.47;100.00
23339;BME280;11841;49.368;20.962;2023-01-23T01:04:53;96983.28;;;0.57;100.00
23339;BME280;11841;49.368;20.962;2023-01-23T01:07:19;96979.38;;;0.63;100.00
23339;BME280;11841;49.368;20.962;2023-01-23T01:09:46;96976.75;;;0.63;100.00
23339;BME280;11841;49.368;20.962;2023-01-23T01:12:12;96972.47;;;0.62;100.00
23339;BME280;11841;49.368;20.962;2023-01-23T01:14:39;96972.47;;;0.62;100.00
23339;BME280;11841;49.368;20.962;2023-01-23T01:17:06;96976.75;;;0.63;100.00
23339;BME280;11841;49.368;20.962;2023-01-23T01:19:32;96985.53;;;0.62;100.00
23339;BME280;11841;49.368;20.962;2023-01-23T01:21:59;96986.50;;;0.61;100.00
23339;BME280;11841;49.368;20.962;2023-01-23T01:24:25;96985.41;;;0.63;100.00
23339;BME280;11841;49.368;20.962;2023-01-23T01:26:52;96972.22;;;0.65;100.00
23339;BME280;11841;49.368;20.962;2023-01-23T01:29:18;96983.94;;;0.70;100.00
23339;BME280;11841;49.368;20.962;2023-01-23T01:31:46;96991.66;;;0.72;100.00
23339;BME280;11841;49.368;20.962;2023-01-23T01:34:12;96993.31;;;0.73;100.00
23339;BME280;11841;49.368;20.962;2023-01-23T01:36:39;96986.44;;;0.72;100.00
23339;BME280;11841;49.368;20.962;2023-01-23T01:39:06;96988.78;;;0.75;100.00
23339;BME280;11841;49.368;20.962;2023-01-23T01:41:32;96989.75;;;0.74;100.00
23339;BME280;11841;49.368;20.962;2023-01-23T01:43:59;96987.25;;;0.72;100.00
23339;BME280;11841;49.368;20.962;2023-01-23T01:46:26;96990.25;;;0.68;100.00
23339;BME280;11841;49.368;20.962;2023-01-23T01:54:03;96992.47;;;0.72;100.00
23339;BME280;11841;49.368;20.962;2023-01-23T01:56:31;96987.72;;;0.77;100.00
23339;BME280;11841;49.368;20.962;2023-01-23T01:58:59;96986.16;;;0.75;100.00
23339;BME280;11841;49.368;20.962;2023-01-23T02:01:27;96985.84;;;0.68;100.00
23339;BME280;11841;49.368;20.962;2023-01-23T02:03:54;96987.19;;;0.63;100.00
23339;BME280;11841;49.368;20.962;2023-01-23T02:06:20;96989.31;;;0.58;100.00
23339;BME280;11841;49.368;20.962;2023-01-23T02:08:57;96988.66;;;0.56;100.00
23339;BME280;11841;49.368;20.962;2023-01-23T02:11:27;96990.28;;;0.57;100.00
23339;BME280;11841;49.368;20.962;2023-01-23T02:13:53;96998.13;;;0.57;100.00
23339;BME280;11841;49.368;20.962;2023-01-23T02:16:26;96996.47;;;0.56;100.00
23339;BME280;11841;49.368;20.962;2023-01-23T02:18:57;97007.84;;;0.55;100.00
23339;BME280;11841;49.368;20.962;2023-01-23T02:21:24;97006.06;;;0.55;100.00
23339;BME280;11841;49.368;20.962;2023-01-23T02:26:24;97003.34;;;0.57;100.00
23339;BME280;11841;49.368;20.962;2023-01-23T02:28:53;97005.22;;;0.55;100.00
23339;BME280;11841;49.368;20.962;2023-01-23T02:31:21;97003.47;;;0.55;100.00
23339;BME280;11841;49.368;20.962;2023-01-23T02:33:49;97006.78;;;0.57;100.00
23339;BME280;11841;49.368;20.962;2023-01-23T02:36:16;97009.00;;;0.62;100.00
23339;BME280;11841;49.368;20.962;2023-01-23T02:38:45;97003.41;;;0.66;100.00
23339;BME280;11841;49.368;20.962;2023-01-23T02:41:14;97007.56;;;0.69;100.00
23339;BME280;11841;49.368;20.962;2023-01-23T02:43:41;97001.50;;;0.68;100.00
23339;BME280;11841;49.368;20.962;2023-01-23T02:46:09;97002.34;;;0.69;100.00
23339;BME280;11841;49.368;20.962;2023-01-23T02:48:36;97015.25;;;0.70;100.00
23339;BME280;11841;49.368;20.962;2023-01-23T02:51:05;97010.88;;;0.71;100.00
23339;BME280;11841;49.368;20.962;2023-01-23T02:53:32;97014.44;;;0.70;100.00
23339;BME280;11841;49.368;20.962;2023-01-23T02:55:59;97018.00;;;0.69;100.00
23339;BME280;11841;49.368;20.962;2023-01-23T02:58:26;97016.34;;;0.68;100.00
23339;BME280;11841;49.368;20.962;2023-01-23T03:01:10;97025.13;;;0.67;100.00
23339;BME280;11841;49.368;20.962;2023-01-23T03:03:37;97019.78;;;0.68;100.00
23339;BME280;11841;49.368;20.962;2023-01-23T03:06:07;97019.78;;;0.68;100.00
23339;BME280;11841;49.368;20.962;2023-01-23T03:08:33;97019.91;;;0.67;100.00
23339;BME280;11841;49.368;20.962;2023-01-23T03:11:02;97014.44;;;0.70;100.00
23339;BME280;11841;49.368;20.962;2023-01-23T03:13:29;97019.41;;;0.73;100.00
23339;BME280;11841;49.368;20.962;2023-01-23T03:15:55;97010.50;;;0.75;100.00
23339;BME280;11841;49.368;20.962;2023-01-23T03:18:25;97015.34;;;0.80;100.00
23339;BME280;11841;49.368;20.962;2023-01-23T03:21:00;97023.16;;;0.80;100.00
23339;BME280;11841;49.368;20.962;2023-01-23T03:23:26;97013.81;;;0.77;100.00
23339;BME280;11841;49.368;20.962;2023-01-23T03:25:53;97024.13;;;0.79;100.00
23339;BME280;11841;49.368;20.962;2023-01-23T03:28:24;97017.50;;;0.75;100.00
23339;BME280;11841;49.368;20.962;2023-01-23T03:31:10;97022.97;;;0.72;100.00
23339;BME280;11841;49.368;20.962;2023-01-23T03:33:37;97035.75;;;0.75;100.00
23339;BME280;11841;49.368;20.962;2023-01-23T03:36:04;97036.47;;;0.77;100.00
23339;BME280;11841;49.368;20.962;2023-01-23T03:38:31;97040.50;;;0.81;100.00
23339;BME280;11841;49.368;20.962;2023-01-23T03:40:57;97034.56;;;0.79;100.00
23339;BME280;11841;49.368;20.962;2023-01-23T03:43:42;97044.03;;;0.80;100.00
23339;BME280;11841;49.368;20.962;2023-01-23T03:46:09;97042.16;;;0.82;100.00
23339;BME280;11841;49.368;20.962;2023-01-23T03:48:35;97044.75;;;0.82;100.00
23339;BME280;11841;49.368;20.962;2023-01-23T03:51:02;97053.56;;;0.81;100.00
23339;BME280;11841;49.368;20.962;2023-01-23T03:53:28;97052.47;;;0.83;100.00
23339;BME280;11841;49.368;20.962;2023-01-23T03:55:55;97051.41;;;0.86;100.00
23339;BME280;11841;49.368;20.962;2023-01-23T03:58:21;97055.19;;;0.82;100.00
23339;BME280;11841;49.368;20.962;2023-01-23T04:00:48;97052.47;;;0.83;100.00
23339;BME280;11841;49.368;20.962;2023-01-23T04:03:14;97042.53;;;0.77;100.00
23339;BME280;11841;49.368;20.962;2023-01-23T04:05:41;97046.09;;;0.76;100.00
23339;BME280;11841;49.368;20.962;2023-01-23T04:08:07;97048.59;;;0.78;100.00
23339;BME280;11841;49.368;20.962;2023-01-23T04:10:34;97053.81;;;0.78;100.00
23339;BME280;11841;49.368;20.962;2023-01-23T04:13:02;97056.16;;;0.81;100.00
23339;BME280;11841;49.368;20.962;2023-01-23T04:15:30;97055.72;;;0.76;100.00
23339;BME280;11841;49.368;20.962;2023-01-23T04:17:56;97055.31;;;0.80;100.00
23339;BME280;11841;49.368;20.962;2023-01-23T04:20:23;97066.09;;;0.87;100.00
23339;BME280;11841;49.368;20.962;2023-01-23T04:22:50;97058.84;;;0.90;100.00
23339;BME280;11841;49.368;20.962;2023-01-23T04:25:16;97062.22;;;0.81;100.00
23339;BME280;11841;49.368;20.962;2023-01-23T04:27:43;97061.78;;;0.76;100.00
23339;BME280;11841;49.368;20.962;2023-01-23T04:30:09;97062.31;;;0.80;100.00
23339;BME280;11841;49.368;20.962;2023-01-23T04:32:36;97062.84;;;0.74;100.00
23339;BME280;11841;49.368;20.962;2023-01-23T04:35:02;97064.00;;;0.81;100.00
23339;BME280;11841;49.368;20.962;2023-01-23T04:37:29;97068.72;;;0.87;100.00
23339;BME280;11841;49.368;20.962;2023-01-23T04:39:55;97068.72;;;0.87;100.00
23339;BME280;11841;49.368;20.962;2023-01-23T04:42:22;97078.69;;;0.93;100.00
23339;BME280;11841;49.368;20.962;2023-01-23T04:44:48;97075.69;;;0.97;100.00
23339;BME280;11841;49.368;20.962;2023-01-23T04:47:15;97077.34;;;0.98;100.00
23339;BME280;11841;49.368;20.962;2023-01-23T04:49:41;97077.56;;;0.95;100.00
23339;BME280;11841;49.368;20.962;2023-01-23T04:52:08;97076.53;;;0.98;100.00
23339;BME280;11841;49.368;20.962;2023-01-23T04:54:35;97079.84;;;1.00;100.00
23339;BME280;11841;49.368;20.962;2023-01-23T04:57:01;97079.84;;;1.00;100.00
23339;BME280;11841;49.368;20.962;2023-01-23T04:59:28;97073.38;;;1.04;100.00
23339;BME280;11841;49.368;20.962;2023-01-23T05:01:54;97084.56;;;1.06;100.00
23339;BME280;11841;49.368;20.962;2023-01-23T05:04:21;97090.34;;;1.09;100.00
23339;BME280;11841;49.368;20.962;2023-01-23T05:06:47;97086.69;;;1.12;100.00
23339;BME280;11841;49.368;20.962;2023-01-23T05:09:13;97086.44;;;1.04;100.00
23339;BME280;11841;49.368;20.962;2023-01-23T05:11:40;97087.41;;;1.03;100.00
23339;BME280;11841;49.368;20.962;2023-01-23T05:14:06;97099.50;;;1.04;100.00
23339;BME280;11841;49.368;20.962;2023-01-23T05:16:33;97095.00;;;1.06;100.00
23339;BME280;11841;49.368;20.962;2023-01-23T05:19:00;97101.06;;;1.06;100.00
23339;BME280;11841;49.368;20.962;2023-01-23T05:21:26;97100.47;;;1.03;100.00
23339;BME280;11841;49.368;20.962;2023-01-23T05:23:52;97102.13;;;1.04;100.00
23339;BME280;11841;49.368;20.962;2023-01-23T05:26:19;97112.09;;;1.10;100.00
23339;BME280;11841;49.368;20.962;2023-01-23T05:28:45;97111.38;;;1.08;100.00
23339;BME280;11841;49.368;20.962;2023-01-23T05:31:12;97105.19;;;1.09;100.00
23339;BME280;11841;49.368;20.962;2023-01-23T05:33:38;97109.34;;;1.11;100.00
23339;BME280;11841;49.368;20.962;2023-01-23T05:36:05;97109.09;;;1.14;100.00
23339;BME280;11841;49.368;20.962;2023-01-23T05:38:32;97116.78;;;1.16;100.00
23339;BME280;11841;49.368;20.962;2023-01-23T05:40:58;97120.13;;;1.18;100.00
23339;BME280;11841;49.368;20.962;2023-01-23T05:43:25;97122.84;;;1.16;100.00
23339;BME280;11841;49.368;20.962;2023-01-23T05:45:51;97119.88;;;1.21;100.00
23339;BME280;11841;49.368;20.962;2023-01-23T05:48:18;97127.25;;;1.16;100.00
23339;BME280;11841;49.368;20.962;2023-01-23T05:50:44;97130.56;;;1.18;100.00
23339;BME280;11841;49.368;20.962;2023-01-23T05:53:10;97133.75;;;1.21;100.00
23339;BME280;11841;49.368;20.962;2023-01-23T05:55:37;97139.13;;;1.20;100.00
23339;BME280;11841;49.368;20.962;2023-01-23T05:58:04;97134.69;;;1.20;100.00
23339;BME280;11841;49.368;20.962;2023-01-23T06:00:30;97136.97;;;1.25;100.00
23339;BME280;11841;49.368;20.962;2023-01-23T06:02:58;97136.00;;;1.26;100.00
23339;BME280;11841;49.368;20.962;2023-01-23T06:05:24;97133.13;;;1.29;100.00
23339;BME280;11841;49.368;20.962;2023-01-23T06:07:51;97145.38;;;1.29;100.00
23339;BME280;11841;49.368;20.962;2023-01-23T06:10:17;97137.28;;;1.32;100.00
23339;BME280;11841;49.368;20.962;2023-01-23T06:12:44;97143.09;;;1.35;100.00
23339;BME280;11841;49.368;20.962;2023-01-23T06:15:11;97145.56;;;1.37;100.00
23339;BME280;11841;49.368;20.962;2023-01-23T06:17:37;97146.16;;;1.40;100.00
23339;BME280;11841;49.368;20.962;2023-01-23T06:20:04;97146.16;;;1.40;100.00
23339;BME280;11841;49.368;20.962;2023-01-23T06:22:30;97148.06;;;1.38;100.00
23339;BME280;11841;49.368;20.962;2023-01-23T06:24:57;97150.66;;;1.38;100.00
23339;BME280;11841;49.368;20.962;2023-01-23T06:27:23;97153.28;;;1.38;100.00
23339;BME280;11841;49.368;20.962;2023-01-23T06:29:50;97156.59;;;1.40;100.00
23339;BME280;11841;49.368;20.962;2023-01-23T06:32:16;97162.78;;;1.39;100.00
23339;BME280;11841;49.368;20.962;2023-01-23T06:34:43;97157.56;;;1.39;100.00
23339;BME280;11841;49.368;20.962;2023-01-23T06:37:09;97160.88;;;1.41;100.00
23339;BME280;11841;49.368;20.962;2023-01-23T06:39:36;97165.16;;;1.42;100.00
23339;BME280;11841;49.368;20.962;2023-01-23T06:42:03;97165.16;;;1.42;100.00
23339;BME280;11841;49.368;20.962;2023-01-23T06:44:31;97162.28;;;1.45;100.00
23339;BME280;11841;49.368;20.962;2023-01-23T06:46:57;97163.13;;;1.46;100.00
23339;BME280;11841;49.368;20.962;2023-01-23T06:49:24;97171.91;;;1.45;100.00
23339;BME280;11841;49.368;20.962;2023-01-23T06:51:50;97165.72;;;1.46;100.00
23339;BME280;11841;49.368;20.962;2023-01-23T06:54:17;97171.09;;;1.44;100.00
23339;BME280;11841;49.368;20.962;2023-01-23T06:56:43;97165.34;;;1.50;100.00
23339;BME280;11841;49.368;20.962;2023-01-23T06:59:10;97178.59;;;1.58;100.00
23339;BME280;11841;49.368;20.962;2023-01-23T07:01:36;97182.63;;;1.62;100.00
23339;BME280;11841;49.368;20.962;2023-01-23T07:04:03;97185.13;;;1.64;100.00
23339;BME280;11841;49.368;20.962;2023-01-23T07:06:29;97184.06;;;1.66;100.00
23339;BME280;11841;49.368;20.962;2023-01-23T07:08:56;97185.13;;;1.64;100.00
23339;BME280;11841;49.368;20.962;2023-01-23T07:11:22;97187.88;;;1.62;100.00
23339;BME280;11841;49.368;20.962;2023-01-23T07:13:49;97189.28;;;1.66;100.00
23339;BME280;11841;49.368;20.962;2023-01-23T07:16:16;97195.06;;;1.70;100.00
23339;BME280;11841;49.368;20.962;2023-01-23T07:18:42;97199.63;;;1.68;100.00
23339;BME280;11841;49.368;20.962;2023-01-23T07:21:09;97188.13;;;1.59;100.00
23339;BME280;11841;49.368;20.962;2023-01-23T07:23:35;97185.28;;;1.51;100.00
23339;BME280;11841;49.368;20.962;2023-01-23T07:26:03;97202.66;;;1.52;100.00
23339;BME280;11841;49.368;20.962;2023-01-23T07:28:29;97196.09;;;1.58;100.00
23339;BME280;11841;49.368;20.962;2023-01-23T07:30:57;97194.75;;;1.63;100.00
23339;BME280;11841;49.368;20.962;2023-01-23T07:33:24;97203.56;;;1.62;100.00
23339;BME280;11841;49.368;20.962;2023-01-23T07:35:50;97195.00;;;1.60;100.00
23339;BME280;11841;49.368;20.962;2023-01-23T07:38:17;97196.41;;;1.64;100.00
23339;BME280;11841;49.368;20.962;2023-01-23T07:40:43;97191.66;;;1.69;100.00
23339;BME280;11841;49.368;20.962;2023-01-23T07:43:10;97192.09;;;1.74;100.00
23339;BME280;11841;49.368;20.962;2023-01-23T07:45:37;97193.47;;;1.78;100.00
23339;BME280;11841;49.368;20.962;2023-01-23T07:48:04;97191.00;;;1.77;100.00
23339;BME280;11841;49.368;20.962;2023-01-23T07:50:30;97197.56;;;1.71;100.00
23339;BME280;11841;49.368;20.962;2023-01-23T07:52:57;97196.34;;;1.75;100.00
23339;BME280;11841;49.368;20.962;2023-01-23T07:55:23;97197.06;;;1.77;100.00
23339;BME280;11841;49.368;20.962;2023-01-23T07:57:50;97187.56;;;1.76;100.00
23339;BME280;11841;49.368;20.962;2023-01-23T08:00:16;97192.09;;;1.74;100.00
23339;BME280;11841;49.368;20.962;2023-01-23T08:02:43;97197.31;;;1.74;100.00
23339;BME280;11841;49.368;20.962;2023-01-23T08:05:10;97204.47;;;1.72;100.00
23339;BME280;11841;49.368;20.962;2023-01-23T08:07:38;97198.03;;;1.76;100.00
23339;BME280;11841;49.368;20.962;2023-01-23T08:10:05;97203.44;;;1.84;100.00
23339;BME280;11841;49.368;20.962;2023-01-23T08:12:32;97197.03;;;1.88;100.00
23339;BME280;11841;49.368;20.962;2023-01-23T08:14:59;97201.97;;;1.91;100.00
23339;BME280;11841;49.368;20.962;2023-01-23T08:17:25;97198.41;;;1.92;100.00
23339;BME280;11841;49.368;20.962;2023-01-23T08:19:52;97191.13;;;1.96;100.00
23339;BME280;11841;49.368;20.962;2023-01-23T08:22:18;97190.88;;;1.99;100.00
23339;BME280;11841;49.368;20.962;2023-01-23T08:24:45;97196.94;;;1.99;100.00
23339;BME280;11841;49.368;20.962;2023-01-23T08:27:12;97198.34;;;2.03;100.00
23339;BME280;11841;49.368;20.962;2023-01-23T08:29:38;97196.53;;;2.04;100.00
23339;BME280;11841;49.368;20.962;2023-01-23T08:32:05;97201.63;;;2.05;100.00
23339;BME280;11841;49.368;20.962;2023-01-23T08:34:31;97199.72;;;2.07;100.00
23339;BME280;11841;49.368;20.962;2023-01-23T08:36:58;97202.34;;;2.07;100.00
23339;BME280;11841;49.368;20.962;2023-01-23T08:39:24;97204.03;;;2.08;100.00
23339;BME280;11841;49.368;20.962;2023-01-23T08:41:51;97211.88;;;2.08;100.00
23339;BME280;11841;49.368;20.962;2023-01-23T08:44:17;97213.53;;;2.09;100.00
23339;BME280;11841;49.368;20.962;2023-01-23T08:46:44;97218.63;;;2.11;100.00
23339;BME280;11841;49.368;20.962;2023-01-23T08:49:11;97219.47;;;2.11;100.00
23339;BME280;11841;49.368;20.962;2023-01-23T08:51:37;97221.81;;;2.14;100.00
23339;BME280;11841;49.368;20.962;2023-01-23T08:54:04;97227.31;;;2.11;100.00
23339;BME280;11841;49.368;20.962;2023-01-23T08:56:31;97220.16;;;2.13;100.00
23339;BME280;11841;49.368;20.962;2023-01-23T08:58:57;97214.94;;;2.13;100.00
23339;BME280;11841;49.368;20.962;2023-01-23T09:01:24;97229.41;;;2.17;100.00
23339;BME280;11841;49.368;20.962;2023-01-23T09:03:51;97228.19;;;2.21;100.00
23339;BME280;11841;49.368;20.962;2023-01-23T09:06:19;97226.28;;;2.23;100.00
23339;BME280;11841;49.368;20.962;2023-01-23T09:08:46;97236.75;;;2.23;100.00
23339;BME280;11841;49.368;20.962;2023-01-23T09:11:13;97233.88;;;2.26;100.00
23339;BME280;11841;49.368;20.962;2023-01-23T09:13:40;97237.19;;;2.28;100.00
23339;BME280;11841;49.368;20.962;2023-01-23T09:16:06;97235.97;;;2.32;100.00
23339;BME280;11841;49.368;20.962;2023-01-23T09:18:33;97237.38;;;2.36;100.00
23339;BME280;11841;49.368;20.962;2023-01-23T09:21:04;97235.47;;;2.38;100.00
23339;BME280;11841;49.368;20.962;2023-01-23T09:23:33;97226.75;;;2.38;100.00
23339;BME280;11841;49.368;20.962;2023-01-23T09:26:04;97227.59;;;2.38;100.00
23339;BME280;11841;49.368;20.962;2023-01-23T09:28:30;97220.72;;;2.37;100.00
23339;BME280;11841;49.368;20.962;2023-01-23T09:31:00;97225.00;;;2.38;100.00
23339;BME280;11841;49.368;20.962;2023-01-23T09:33:27;97227.34;;;2.41;100.00
23339;BME280;11841;49.368;20.962;2023-01-23T09:35:54;97227.47;;;2.40;100.00
23339;BME280;11841;49.368;20.962;2023-01-23T09:38:21;97224.72;;;2.41;100.00
23339;BME280;11841;49.368;20.962;2023-01-23T09:40:51;97222.81;;;2.43;100.00
23339;BME280;11841;49.368;20.962;2023-01-23T09:43:22;97219.13;;;2.46;100.00
23339;BME280;11841;49.368;20.962;2023-01-23T09:45:58;97218.97;;;2.47;100.00
23339;BME280;11841;49.368;20.962;2023-01-23T09:50:55;97215.97;;;2.52;100.00
23339;BME280;11841;49.368;20.962;2023-01-23T09:53:25;97219.56;;;2.51;100.00
23339;BME280;11841;49.368;20.962;2023-01-23T09:56:02;97216.09;;;2.51;100.00
23339;BME280;11841;49.368;20.962;2023-01-23T09:58:37;97229.75;;;2.54;100.00
23339;BME280;11841;49.368;20.962;2023-01-23T10:01:08;97226.03;;;2.57;100.00
23339;BME280;11841;49.368;20.962;2023-01-23T10:03:36;97223.19;;;2.60;100.00
23339;BME280;11841;49.368;20.962;2023-01-23T10:26:10;97206.38;;;2.72;100.00
23339;BME280;11841;49.368;20.962;2023-01-23T10:28:37;97203.66;;;2.73;100.00
23339;BME280;11841;49.368;20.962;2023-01-23T10:31:14;97204.19;;;2.77;100.00
23339;BME280;11841;49.368;20.962;2023-01-23T10:36:36;97204.44;;;2.64;100.00
23339;BME280;11841;49.368;20.962;2023-01-23T10:39:19;97204.56;;;2.63;100.00
23339;BME280;11841;49.368;20.962;2023-01-23T10:41:47;97208.84;;;2.64;100.00
23339;BME280;11841;49.368;20.962;2023-01-23T10:44:28;97194.25;;;2.61;100.00
23339;BME280;11841;49.368;20.962;2023-01-23T10:46:59;97192.56;;;2.60;100.00
23339;BME280;11841;49.368;20.962;2023-01-23T10:49:33;97202.22;;;2.60;100.00
23339;BME280;11841;49.368;20.962;2023-01-23T10:52:00;97196.53;;;2.55;100.00
23339;BME280;11841;49.368;20.962;2023-01-23T10:54:27;97190.63;;;2.53;100.00
23339;BME280;11841;49.368;20.962;2023-01-23T10:59:35;97185.38;;;2.53;100.00
23339;BME280;11841;49.368;20.962;2023-01-23T11:04:30;97187.03;;;2.54;100.00
23339;BME280;11841;49.368;20.962;2023-01-23T11:09:29;97188.66;;;2.55;100.00
23339;BME280;11841;49.368;20.962;2023-01-23T11:12:03;97195.84;;;2.53;100.00
23339;BME280;11841;49.368;20.962;2023-01-23T11:14:30;97187.28;;;2.51;100.00
23339;BME280;11841;49.368;20.962;2023-01-23T11:17:01;97192.13;;;2.55;100.00
23339;BME280;11841;49.368;20.962;2023-01-23T11:19:29;97192.00;;;2.57;100.00
23339;BME280;11841;49.368;20.962;2023-01-23T11:22:00;97187.06;;;2.63;100.00
23339;BME280;11841;49.368;20.962;2023-01-23T11:24:29;97183.22;;;2.67;100.00
23339;BME280;11841;49.368;20.962;2023-01-23T11:32:13;97174.97;;;2.72;100.00
23339;BME280;11841;49.368;20.962;2023-01-23T11:34:43;97169.47;;;2.75;100.00
23339;BME280;11841;49.368;20.962;2023-01-23T11:37:14;97169.72;;;2.72;100.00
23339;BME280;11841;49.368;20.962;2023-01-23T11:42:11;97165.31;;;2.72;100.00
23339;BME280;11841;49.368;20.962;2023-01-23T11:44:38;97161.88;;;2.72;100.00
23339;BME280;11841;49.368;20.962;2023-01-23T11:55:00;97164.47;;;2.72;100.00
23339;BME280;11841;49.368;20.962;2023-01-23T12:00:33;97153.50;;;2.78;100.00
23339;BME280;11841;49.368;20.962;2023-01-23T12:06:04;97155.56;;;2.84;100.00
23339;BME280;11841;49.368;20.962;2023-01-23T12:08:48;97158.88;;;2.86;100.00
23339;BME280;11841;49.368;20.962;2023-01-23T12:11:17;97158.59;;;2.89;100.00
23339;BME280;11841;49.368;20.962;2023-01-23T12:16:22;97147.97;;;2.90;100.00
23339;BME280;11841;49.368;20.962;2023-01-23T12:19:08;97156.81;;;2.89;100.00
23339;BME280;11841;49.368;20.962;2023-01-23T12:27:02;97147.75;;;3.03;100.00
23339;BME280;11841;49.368;20.962;2023-01-23T12:34:59;97146.78;;;3.04;100.00
23339;BME280;11841;49.368;20.962;2023-01-23T12:37:42;97153.69;;;3.05;100.00
23339;BME280;11841;49.368;20.962;2023-01-23T12:40:14;97155.31;;;3.06;100.00
23339;BME280;11841;49.368;20.962;2023-01-23T12:42:49;97164.88;;;3.07;100.00
23339;BME280;11841;49.368;20.962;2023-01-23T12:50:28;97170.81;;;3.09;100.00
23339;BME280;11841;49.368;20.962;2023-01-23T12:53:32;97176.72;;;3.11;100.00
23339;BME280;11841;49.368;20.962;2023-01-23T12:58:18;97179.09;;;3.14;100.00
23339;BME280;11841;49.368;20.962;2023-01-23T13:16:46;97165.00;;;3.15;100.00
23339;BME280;11841;49.368;20.962;2023-01-23T13:19:23;97165.69;;;3.17;100.00
23339;BME280;11841;49.368;20.962;2023-01-23T13:24:52;97171.22;;;3.14;100.00
23339;BME280;11841;49.368;20.962;2023-01-23T13:27:39;97169.56;;;3.13;100.00
23339;BME280;11841;49.368;20.962;2023-01-23T13:46:15;97175.31;;;2.97;100.00
23339;BME280;11841;49.368;20.962;2023-01-23T13:48:51;97180.25;;;2.91;100.00
23339;BME280;11841;49.368;20.962;2023-01-23T13:51:52;97189.09;;;2.90;100.00
23339;BME280;11841;49.368;20.962;2023-01-23T13:54:33;97185.50;;;2.91;100.00
23339;BME280;11841;49.368;20.962;2023-01-23T13:57:34;97181.66;;;2.95;100.00
23339;BME280;11841;49.368;20.962;2023-01-23T14:00:17;97182.59;;;2.94;100.00
23339;BME280;11841;49.368;20.962;2023-01-23T14:03:32;97189.66;;;2.93;100.00
23339;BME280;11841;49.368;20.962;2023-01-23T14:06:57;97194.34;;;2.90;100.00
23339;BME280;11841;49.368;20.962;2023-01-23T14:09:25;97184.66;;;2.90;100.00
23339;BME280;11841;49.368;20.962;2023-01-23T14:11:57;97192.66;;;2.89;100.00
23339;BME280;11841;49.368;20.962;2023-01-23T14:14:38;97191.97;;;2.87;100.00
23339;BME280;11841;49.368;20.962;2023-01-23T14:17:37;97189.59;;;2.84;100.00
23339;BME280;11841;49.368;20.962;2023-01-23T14:20:20;97193.19;;;2.83;100.00
23339;BME280;11841;49.368;20.962;2023-01-23T14:22:49;97198.16;;;2.86;100.00
23339;BME280;11841;49.368;20.962;2023-01-23T14:25:19;97195.81;;;2.83;100.00
23339;BME280;11841;49.368;20.962;2023-01-23T14:27:45;97196.25;;;2.88;100.00
23339;BME280;11841;49.368;20.962;2023-01-23T14:30:20;97191.84;;;2.88;100.00
23339;BME280;11841;49.368;20.962;2023-01-23T14:32:49;97201.50;;;2.88;100.00
23339;BME280;11841;49.368;20.962;2023-01-23T14:35:17;97209.34;;;2.88;100.00
23339;BME280;11841;49.368;20.962;2023-01-23T14:37:44;97203.69;;;2.83;100.00
23339;BME280;11841;49.368;20.962;2023-01-23T14:40:15;97197.34;;;2.85;100.00
23339;BME280;11841;49.368;20.962;2023-01-23T14:42:54;97205.31;;;2.84;100.00
23339;BME280;11841;49.368;20.962;2023-01-23T14:45:22;97206.16;;;2.75;100.00
23339;BME280;11841;49.368;20.962;2023-01-23T14:47:49;97197.03;;;2.79;100.00
23339;BME280;11841;49.368;20.962;2023-01-23T14:50:30;97202.41;;;2.77;100.00
23339;BME280;11841;49.368;20.962;2023-01-23T14:53:04;97200.63;;;2.78;100.00
23339;BME280;11841;49.368;20.962;2023-01-23T14:55:33;97203.53;;;2.75;100.00
23339;BME280;11841;49.368;20.962;2023-01-23T14:58:01;97198.81;;;2.69;100.00